createdAt,value
2023-04-09T00:01:34.221Z,18.29
2023-04-09T00:04:00.937Z,18.30
2023-04-09T00:06:27.672Z,18.31
2023-04-09T00:08:54.392Z,18.30
2023-04-09T00:11:21.618Z,18.31
2023-04-09T00:13:48.425Z,18.28
2023-04-09T00:16:15.093Z,18.31
2023-04-09T00:18:41.871Z,18.26
2023-04-09T00:21:08.879Z,18.30
2023-04-09T00:23:36.583Z,18.28
2023-04-09T00:26:03.356Z,18.28
2023-04-09T00:28:29.908Z,18.29
2023-04-09T00:30:57.265Z,18.25
2023-04-09T00:33:23.831Z,18.25
2023-04-09T00:35:50.556Z,18.27
2023-04-09T00:38:17.364Z,18.26
2023-04-09T00:40:44.127Z,18.26
2023-04-09T00:43:10.799Z,18.25
2023-04-09T00:45:37.991Z,18.21
2023-04-09T00:48:04.812Z,18.23
2023-04-09T00:50:31.492Z,18.22
2023-04-09T00:52:58.168Z,18.23
2023-04-09T00:55:25.313Z,18.21
2023-04-09T00:57:51.915Z,18.20
2023-04-09T01:00:18.553Z,18.19
2023-04-09T01:02:46.086Z,18.23
2023-04-09T01:05:13.470Z,18.20
2023-04-09T01:08:09.176Z,18.20
2023-04-09T01:10:59.852Z,18.18
2023-04-09T01:13:43.980Z,18.16
2023-04-09T01:16:15.118Z,18.18
2023-04-09T01:18:52.840Z,18.15
2023-04-09T01:21:26.660Z,18.16
2023-04-09T01:24:14.738Z,18.16
2023-04-09T01:27:05.317Z,18.16
2023-04-09T01:29:34.597Z,17.84
2023-04-09T01:32:03.079Z,18.16
2023-04-09T01:37:01.024Z,18.14
2023-04-09T01:39:28.570Z,18.14
2023-04-09T01:41:59.076Z,18.14
2023-04-09T01:44:27.603Z,18.14
2023-04-09T01:46:55.172Z,18.13
2023-04-09T01:49:22.352Z,18.12
2023-04-09T01:51:49.309Z,18.13
2023-04-09T01:54:16.952Z,18.12
2023-04-09T01:56:45.509Z,18.12
2023-04-09T01:59:12.576Z,18.12
2023-04-09T02:01:46.222Z,18.11
2023-04-09T02:04:24.330Z,18.12
2023-04-09T02:07:05.035Z,18.11
2023-04-09T02:09:34.082Z,18.11
2023-04-09T02:12:05.681Z,18.10
2023-04-09T02:14:33.440Z,18.11
2023-04-09T02:17:01.072Z,18.10
2023-04-09T02:19:44.876Z,18.09
2023-04-09T02:22:12.552Z,18.08
2023-04-09T02:24:40.501Z,18.08
2023-04-09T02:27:07.784Z,18.06
2023-04-09T02:29:34.431Z,18.07
2023-04-09T02:32:01.290Z,18.08
2023-04-09T02:34:28.113Z,18.07
2023-04-09T02:36:54.658Z,18.07
2023-04-09T02:39:21.162Z,18.06
2023-04-09T02:41:47.719Z,18.05
2023-04-09T02:44:14.285Z,18.04
2023-04-09T02:46:41.376Z,18.04
2023-04-09T02:49:08.283Z,18.05
2023-04-09T02:51:35.983Z,18.05
2023-04-09T02:54:03.600Z,18.04
2023-04-09T02:56:30.296Z,18.06
2023-04-09T02:58:56.852Z,18.08
2023-04-09T03:01:23.394Z,18.09
2023-04-09T03:03:50.532Z,18.09
2023-04-09T03:06:18.576Z,18.10
2023-04-09T03:08:45.252Z,18.09
2023-04-09T03:11:11.790Z,18.06
2023-04-09T03:13:38.467Z,18.05
2023-04-09T03:16:05.647Z,18.05
2023-04-09T03:18:32.304Z,18.03
2023-04-09T03:20:58.850Z,18.03
2023-04-09T03:23:25.562Z,18.01
2023-04-09T03:26:04.147Z,17.99
2023-04-09T03:28:31.569Z,17.97
2023-04-09T03:30:58.333Z,17.95
2023-04-09T03:33:25.744Z,17.95
2023-04-09T03:35:52.655Z,17.95
2023-04-09T03:38:19.710Z,17.95
2023-04-09T03:40:46.334Z,17.97
2023-04-09T03:43:12.905Z,17.99
2023-04-09T03:45:39.476Z,18.02
2023-04-09T03:48:06.218Z,18.02
2023-04-09T03:50:38.342Z,18.03
2023-04-09T03:53:04.881Z,18.04
2023-04-09T03:55:31.426Z,18.05
2023-04-09T03:57:57.980Z,18.06
2023-04-09T04:00:24.596Z,18.06
2023-04-09T04:02:52.200Z,18.07
2023-04-09T04:05:18.888Z,18.07
2023-04-09T04:07:45.415Z,18.08
2023-04-09T04:10:12.101Z,18.08
2023-04-09T04:12:38.629Z,18.10
2023-04-09T04:15:05.651Z,18.08
2023-04-09T04:17:32.213Z,18.09
2023-04-09T04:19:58.724Z,18.10
2023-04-09T04:22:26.312Z,18.10
2023-04-09T04:24:53.025Z,18.09
2023-04-09T04:27:19.616Z,18.11
2023-04-09T04:29:46.180Z,18.11
2023-04-09T04:32:12.694Z,18.10
2023-04-09T04:34:39.234Z,18.11
2023-04-09T04:37:05.810Z,18.12
2023-04-09T04:39:32.365Z,18.12
2023-04-09T04:41:58.895Z,18.11
2023-04-09T04:44:25.503Z,18.11
2023-04-09T04:46:52.017Z,18.11
2023-04-09T04:49:18.539Z,18.11
2023-04-09T04:51:45.147Z,18.11
2023-04-09T04:54:11.659Z,18.12
2023-04-09T04:56:38.265Z,18.12
2023-04-09T04:59:04.808Z,18.12
2023-04-09T05:01:31.465Z,18.12
2023-04-09T05:03:58.087Z,18.12
2023-04-09T05:06:24.776Z,18.12
2023-04-09T05:08:51.535Z,18.13
2023-04-09T05:11:18.447Z,18.13
2023-04-09T05:13:45.029Z,18.12
2023-04-09T05:16:19.442Z,18.12
2023-04-09T05:18:46.534Z,18.13
2023-04-09T05:21:13.464Z,18.13
2023-04-09T05:23:40.021Z,18.13
2023-04-09T05:26:06.583Z,18.12
2023-04-09T05:28:33.254Z,18.12
2023-04-09T05:30:59.836Z,18.12
2023-04-09T05:33:26.429Z,18.12
2023-04-09T05:35:53.005Z,18.12
2023-04-09T05:38:19.576Z,18.13
2023-04-09T05:40:46.206Z,18.12
2023-04-09T05:43:12.792Z,18.12
2023-04-09T05:45:39.393Z,18.12
2023-04-09T05:48:06.234Z,18.12
2023-04-09T05:50:38.149Z,18.12
2023-04-09T05:53:14.236Z,18.13
2023-04-09T05:55:41.012Z,18.12
2023-04-09T05:58:07.673Z,18.13
2023-04-09T06:00:34.545Z,18.12
2023-04-09T06:03:01.164Z,18.12
2023-04-09T06:05:28.366Z,18.12
2023-04-09T06:07:54.959Z,18.12
2023-04-09T06:10:21.740Z,18.12
2023-04-09T06:12:48.299Z,18.13
2023-04-09T06:15:14.956Z,18.11
2023-04-09T06:17:41.500Z,18.13
2023-04-09T06:20:08.608Z,18.12
2023-04-09T06:22:35.401Z,18.13
2023-04-09T06:25:02.013Z,18.12
2023-04-09T06:27:28.562Z,18.12
2023-04-09T06:29:55.356Z,18.14
2023-04-09T06:32:21.955Z,18.13
2023-04-09T06:34:48.527Z,18.13
2023-04-09T06:37:15.719Z,18.12
2023-04-09T06:39:47.616Z,18.12
2023-04-09T06:42:24.606Z,18.11
2023-04-09T06:44:51.669Z,18.12
2023-04-09T06:47:18.175Z,18.13
2023-04-09T06:49:44.730Z,18.12
2023-04-09T06:52:11.302Z,18.12
2023-04-09T06:54:37.817Z,18.12
2023-04-09T06:57:04.374Z,18.13
2023-04-09T06:59:30.984Z,18.12
2023-04-09T07:01:57.713Z,18.12
2023-04-09T07:04:24.493Z,18.12
2023-04-09T07:06:52.760Z,18.12
2023-04-09T07:09:19.334Z,18.12
2023-04-09T07:11:45.989Z,18.12
2023-04-09T07:14:12.561Z,18.12
2023-04-09T07:16:39.136Z,18.12
2023-04-09T07:19:07.515Z,18.12
2023-04-09T07:21:34.173Z,18.12
2023-04-09T07:24:00.889Z,18.09
2023-04-09T07:26:27.446Z,18.12
2023-04-09T07:28:54.057Z,18.11
2023-04-09T07:31:20.646Z,18.12
2023-04-09T07:33:47.220Z,18.13
2023-04-09T07:36:13.862Z,18.12
2023-04-09T07:38:40.420Z,18.12
2023-04-09T07:41:07.130Z,18.13
2023-04-09T07:43:33.702Z,18.12
2023-04-09T07:46:00.443Z,18.13
2023-04-09T07:48:28.220Z,18.12
2023-04-09T07:50:54.795Z,18.10
2023-04-09T07:53:21.448Z,18.13
2023-04-09T07:55:48.045Z,18.13
2023-04-09T07:58:14.662Z,18.13
2023-04-09T08:00:41.201Z,18.14
2023-04-09T08:03:07.911Z,18.14
2023-04-09T08:05:36.147Z,18.15
2023-04-09T08:08:02.765Z,18.14
2023-04-09T08:10:29.335Z,18.15
2023-04-09T08:12:55.961Z,18.16
2023-04-09T08:15:22.675Z,18.15
2023-04-09T08:17:49.279Z,18.17
2023-04-09T08:20:17.101Z,18.16
2023-04-09T08:22:43.883Z,18.17
2023-04-09T08:25:10.681Z,18.20
2023-04-09T08:27:37.303Z,18.20
2023-04-09T08:30:04.459Z,18.19
2023-04-09T08:32:31.529Z,18.22
2023-04-09T08:34:58.142Z,18.24
2023-04-09T08:37:24.847Z,18.25
2023-04-09T08:39:52.003Z,18.26
2023-04-09T08:42:20.694Z,18.29
2023-04-09T08:44:47.285Z,18.30
2023-04-09T08:47:13.904Z,18.33
2023-04-09T08:49:43.230Z,18.33
2023-04-09T08:52:09.916Z,18.35
2023-04-09T08:54:36.706Z,18.37
2023-04-09T08:57:06.736Z,18.39
2023-04-09T08:59:37.029Z,18.42
2023-04-09T09:02:11.704Z,18.43
2023-04-09T09:04:49.793Z,18.44
2023-04-09T09:07:17.361Z,18.45
2023-04-09T09:09:54.275Z,18.47
2023-04-09T09:12:38.194Z,18.49
2023-04-09T09:15:24.411Z,18.53
2023-04-09T09:17:55.865Z,18.57
2023-04-09T09:20:23.401Z,18.65
2023-04-09T09:22:54.906Z,18.70
2023-04-09T09:25:24.716Z,18.71
2023-04-09T09:27:53.030Z,18.75
2023-04-09T09:30:26.275Z,18.79
2023-04-09T09:33:04.841Z,18.82
2023-04-09T09:35:31.572Z,18.84
2023-04-09T09:38:03.860Z,18.84
2023-04-09T09:40:30.588Z,18.84
2023-04-09T09:42:58.059Z,18.86
2023-04-09T09:45:26.060Z,18.88
2023-04-09T09:47:54.374Z,18.91
2023-04-09T09:50:25.368Z,18.95
2023-04-09T09:52:58.596Z,18.99
2023-04-09T09:55:27.824Z,19.04
2023-04-09T09:57:56.838Z,19.07
2023-04-09T10:00:25.532Z,19.11
2023-04-09T10:03:05.551Z,19.14
2023-04-09T10:05:35.229Z,19.15
2023-04-09T10:08:03.028Z,19.12
2023-04-09T10:10:31.220Z,19.11
2023-04-09T10:12:58.057Z,19.10
2023-04-09T10:15:26.242Z,19.09
2023-04-09T10:17:53.566Z,19.09
2023-04-09T10:20:27.669Z,19.09
2023-04-09T10:22:55.396Z,19.09
2023-04-09T10:25:22.220Z,19.08
2023-04-09T10:28:00.299Z,19.10
2023-04-09T10:30:36.721Z,19.12
2023-04-09T10:33:29.456Z,19.11
2023-04-09T10:36:01.020Z,19.15
2023-04-09T10:38:38.361Z,19.17
2023-04-09T10:41:13.009Z,19.19
2023-04-09T10:43:40.353Z,19.18
2023-04-09T10:46:24.748Z,19.20
2023-04-09T10:49:28.160Z,19.19
2023-04-09T10:52:16.206Z,19.22
2023-04-09T10:54:45.482Z,19.22
2023-04-09T10:57:16.605Z,19.23
2023-04-09T10:59:51.785Z,19.22
2023-04-09T11:02:39.855Z,19.23
2023-04-09T11:05:32.430Z,19.23
2023-04-09T11:08:04.826Z,19.23
2023-04-09T11:10:33.099Z,19.25
2023-04-09T11:13:00.414Z,19.25
2023-04-09T11:15:27.309Z,19.26
2023-04-09T11:17:54.401Z,19.27
2023-04-09T11:20:24.118Z,19.28
2023-04-09T11:22:59.683Z,18.91
2023-04-09T11:26:31.674Z,19.01
2023-04-09T11:36:34.533Z,19.00
2023-04-09T11:47:07.584Z,18.81
2023-04-09T12:03:26.896Z,19.18
2023-04-09T12:06:59.919Z,18.97
2023-04-09T12:10:15.230Z,18.94
2023-04-09T12:13:14.280Z,18.90
2023-04-09T12:27:31.796Z,19.00
2023-04-09T12:34:19.000Z,19.23
2023-04-09T12:37:45.742Z,19.43
2023-04-09T12:47:04.309Z,19.38
2023-04-09T12:53:29.850Z,19.18
2023-04-09T13:02:53.657Z,19.27
2023-04-09T13:11:57.624Z,19.72
2023-04-09T13:35:30.868Z,19.86
2023-04-09T14:03:30.046Z,20.04
2023-04-09T14:06:46.148Z,19.62
2023-04-09T14:10:05.495Z,19.55
2023-04-09T14:28:00.825Z,20.19
2023-04-09T14:34:35.861Z,19.87
2023-04-09T14:47:46.212Z,20.35
2023-04-09T14:51:05.863Z,19.92
2023-04-09T14:58:11.564Z,20.43
2023-04-09T15:04:45.349Z,20.47
2023-04-09T15:07:55.372Z,20.48
2023-04-09T15:25:50.000Z,20.44
2023-04-09T15:28:16.416Z,20.60
2023-04-09T15:32:34.035Z,20.64
2023-04-09T15:43:30.361Z,20.71
2023-04-09T15:49:17.614Z,20.76
2023-04-09T15:52:18.187Z,20.68
2023-04-09T15:55:23.586Z,20.52
2023-04-09T16:01:14.609Z,20.40
2023-04-09T16:10:41.188Z,20.55
2023-04-09T16:24:19.821Z,20.70
2023-04-09T16:31:19.621Z,20.58
2023-04-09T16:51:19.511Z,20.67
2023-04-09T16:54:29.924Z,20.85
2023-04-09T17:01:50.581Z,20.58
2023-04-09T17:22:07.033Z,20.94
2023-04-09T17:28:59.331Z,20.66
2023-04-09T17:32:46.341Z,20.72
2023-04-09T17:42:12.486Z,20.91
2023-04-09T17:48:32.373Z,21.13
2023-04-09T18:04:15.111Z,20.66
2023-04-09T18:13:56.266Z,21.10
2023-04-09T18:19:41.550Z,21.09
2023-04-09T18:23:18.323Z,20.62
2023-04-09T18:33:32.128Z,20.68
2023-04-09T18:46:17.549Z,21.02
2023-04-09T18:56:57.071Z,20.98
2023-04-09T19:04:13.622Z,20.64
2023-04-09T19:18:20.696Z,20.61
2023-04-09T19:21:19.008Z,20.62
2023-04-09T19:24:35.133Z,20.89
2023-04-09T19:37:56.491Z,20.58
2023-04-09T19:41:19.753Z,20.87
2023-04-09T19:50:54.098Z,20.43
2023-04-09T19:53:52.040Z,20.69
2023-04-09T20:03:22.512Z,20.68
2023-04-09T20:05:56.698Z,20.32
2023-04-09T20:09:36.530Z,20.83
2023-04-09T20:12:39.214Z,20.34
2023-04-09T20:19:16.991Z,20.80
2023-04-09T20:32:35.976Z,20.41
2023-04-09T20:38:33.487Z,20.26
2023-04-09T20:42:08.428Z,20.33
2023-04-09T20:47:41.250Z,20.24
2023-04-09T21:00:43.269Z,20.70
2023-04-09T21:06:36.082Z,20.25
2023-04-09T21:19:32.310Z,20.21
2023-04-09T21:25:56.643Z,20.59
2023-04-09T21:28:23.221Z,20.56
2023-04-09T21:30:49.913Z,20.54
2023-04-09T21:33:16.519Z,20.51
2023-04-09T21:35:43.052Z,20.51
2023-04-09T21:38:09.709Z,20.49
2023-04-09T21:40:36.322Z,20.47
2023-04-09T21:43:02.835Z,20.45
2023-04-09T21:45:29.588Z,20.45
2023-04-09T21:47:56.391Z,20.43
2023-04-09T21:50:23.152Z,20.40
2023-04-09T21:52:49.711Z,20.39
2023-04-09T21:55:16.457Z,20.38
2023-04-09T21:57:43.046Z,20.38
2023-04-09T22:00:11.070Z,20.37
2023-04-09T22:02:39.270Z,20.35
2023-04-09T22:05:06.524Z,20.34
2023-04-09T22:07:33.557Z,20.31
2023-04-09T22:10:00.350Z,20.31
2023-04-09T22:12:26.937Z,20.29
2023-04-09T22:14:53.493Z,20.28
2023-04-09T22:17:20.104Z,20.27
2023-04-09T22:19:46.760Z,20.24
2023-04-09T22:22:15.095Z,20.24
2023-04-09T22:24:42.962Z,20.24
2023-04-09T22:30:12.585Z,20.22
2023-04-09T22:36:26.612Z,20.20
2023-04-09T22:41:55.323Z,20.14
2023-04-09T22:51:28.035Z,20.11
2023-04-09T23:31:42.604Z,19.96
2023-04-09T23:38:21.413Z,19.42
2023-04-09T23:40:49.079Z,19.93
2023-04-09T23:43:16.084Z,19.91
2023-04-09T23:48:31.359Z,19.89
2023-04-09T23:50:57.908Z,19.88
2023-04-09T23:53:25.067Z,19.91
2023-04-09T23:55:52.673Z,19.89
2023-04-09T23:58:21.200Z,19.88
